sensor_id;sensor_type;location;lat;lon;timestamp;pressure;altitude;pressure_sealevel;temperature;humidity
42725;BME280;28369;44.046;23.014;2023-03-15T00:02:04;99796.00;;;14.11;40.39
42725;BME280;28369;44.046;23.014;2023-03-15T00:04:30;99824.63;;;13.99;40.45
42725;BME280;28369;44.046;23.014;2023-03-15T00:06:59;99928.63;;;14.71;40.83
42725;BME280;28369;44.046;23.014;2023-03-15T00:09:26;100004.34;;;15.34;40.51
42725;BME280;28369;44.046;23.014;2023-03-15T00:11:52;99755.56;;;13.54;40.60
42725;BME280;28369;44.046;23.014;2023-03-15T00:14:20;100092.56;;;15.66;41.37
42725;BME280;28369;44.046;23.014;2023-03-15T00:16:46;99928.72;;;14.77;41.20
42725;BME280;28369;44.046;23.014;2023-03-15T00:19:12;99939.53;;;14.67;41.51
42725;BME280;28369;44.046;23.014;2023-03-15T00:21:38;100081.88;;;15.83;40.96
42725;BME280;28369;44.046;23.014;2023-03-15T00:24:05;100002.34;;;15.36;41.28
42725;BME280;28369;44.046;23.014;2023-03-15T00:26:30;99671.44;;;12.62;42.20
42725;BME280;28369;44.046;23.014;2023-03-15T00:28:56;99712.09;;;13.09;41.82
42725;BME280;28369;44.046;23.014;2023-03-15T00:31:24;99950.03;;;14.84;42.08
42725;BME280;28369;44.046;23.014;2023-03-15T00:33:51;99544.59;;;12.24;42.22
42725;BME280;28369;44.046;23.014;2023-03-15T00:36:18;99642.56;;;12.85;42.30
42725;BME280;28369;44.046;23.014;2023-03-15T00:38:48;100085.69;;;15.80;41.94
42725;BME280;28369;44.046;23.014;2023-03-15T00:41:16;100082.94;;;15.65;42.36
42725;BME280;28369;44.046;23.014;2023-03-15T00:43:42;99930.56;;;14.77;42.29
42725;BME280;28369;44.046;23.014;2023-03-15T00:46:08;99985.72;;;14.96;42.48
42725;BME280;28369;44.046;23.014;2023-03-15T00:48:34;99755.50;;;13.79;42.28
42725;BME280;28369;44.046;23.014;2023-03-15T00:51:10;99703.34;;;13.17;42.88
42725;BME280;28369;44.046;23.014;2023-03-15T00:53:37;99788.28;;;13.53;43.34
42725;BME280;28369;44.046;23.014;2023-03-15T00:56:09;99928.06;;;14.27;43.36
42725;BME280;28369;44.046;23.014;2023-03-15T00:58:35;100027.75;;;14.83;43.82
42725;BME280;28369;44.046;23.014;2023-03-15T01:01:12;99569.06;;;11.67;43.84
42725;BME280;28369;44.046;23.014;2023-03-15T01:03:38;100048.34;;;15.04;43.96
42725;BME280;28369;44.046;23.014;2023-03-15T01:06:09;99932.75;;;14.09;44.40
42725;BME280;28369;44.046;23.014;2023-03-15T01:08:35;100053.94;;;14.53;45.17
42725;BME280;28369;44.046;23.014;2023-03-15T01:11:03;100029.63;;;14.66;44.90
42725;BME280;28369;44.046;23.014;2023-03-15T01:13:28;99640.22;;;11.83;45.89
42725;BME280;28369;44.046;23.014;2023-03-15T01:15:54;99750.69;;;12.60;45.57
42725;BME280;28369;44.046;23.014;2023-03-15T01:18:20;99904.47;;;13.53;45.79
42725;BME280;28369;44.046;23.014;2023-03-15T01:20:47;99902.25;;;13.16;46.04
42725;BME280;28369;44.046;23.014;2023-03-15T01:23:12;99797.78;;;12.47;45.98
42725;BME280;28369;44.046;23.014;2023-03-15T01:25:38;99985.31;;;14.12;45.38
42725;BME280;28369;44.046;23.014;2023-03-15T01:28:03;99904.94;;;13.40;45.73
42725;BME280;28369;44.046;23.014;2023-03-15T01:30:29;99816.47;;;12.87;44.92
42725;BME280;28369;44.046;23.014;2023-03-15T01:32:55;99382.34;;;10.48;45.07
42725;BME280;28369;44.046;23.014;2023-03-15T01:35:20;100037.41;;;14.59;45.00
42725;BME280;28369;44.046;23.014;2023-03-15T01:37:49;100043.53;;;14.60;44.95
42725;BME280;28369;44.046;23.014;2023-03-15T01:40:14;99703.06;;;12.54;44.68
42725;BME280;28369;44.046;23.014;2023-03-15T01:43:19;99740.28;;;12.34;45.66
42725;BME280;28369;44.046;23.014;2023-03-15T01:51:22;99551.56;;;11.33;44.85
42725;BME280;28369;44.046;23.014;2023-03-15T01:56:29;99659.94;;;11.87;43.91
42725;BME280;28369;44.046;23.014;2023-03-15T01:58:58;99533.47;;;10.87;44.48
42725;BME280;28369;44.046;23.014;2023-03-15T02:01:26;99646.00;;;11.44;44.51
42725;BME280;28369;44.046;23.014;2023-03-15T02:03:56;99451.84;;;10.28;44.02
42725;BME280;28369;44.046;23.014;2023-03-15T02:06:25;99506.00;;;10.20;45.19
42725;BME280;28369;44.046;23.014;2023-03-15T02:09:05;99791.28;;;12.17;44.07
42725;BME280;28369;44.046;23.014;2023-03-15T02:11:33;99636.38;;;11.69;43.58
42725;BME280;28369;44.046;23.014;2023-03-15T02:14:01;99454.25;;;10.39;43.16
42725;BME280;28369;44.046;23.014;2023-03-15T02:16:28;99763.03;;;12.60;42.43
42725;BME280;28369;44.046;23.014;2023-03-15T02:18:55;99996.56;;;13.89;42.29
42725;BME280;28369;44.046;23.014;2023-03-15T02:24:08;99667.50;;;11.74;42.70
42725;BME280;28369;44.046;23.014;2023-03-15T02:29:03;99585.44;;;11.36;42.12
42725;BME280;28369;44.046;23.014;2023-03-15T02:31:28;99727.72;;;12.03;42.29
42725;BME280;28369;44.046;23.014;2023-03-15T02:34:02;99677.81;;;11.67;42.38
42725;BME280;28369;44.046;23.014;2023-03-15T02:36:29;99191.63;;;8.75;41.49
42725;BME280;28369;44.046;23.014;2023-03-15T02:38:56;99771.91;;;12.42;41.48
42725;BME280;28369;44.046;23.014;2023-03-15T02:41:32;100021.31;;;13.88;41.97
42725;BME280;28369;44.046;23.014;2023-03-15T02:44:18;99790.34;;;12.34;41.85
42725;BME280;28369;44.046;23.014;2023-03-15T02:46:47;99568.75;;;10.76;42.10
42725;BME280;28369;44.046;23.014;2023-03-15T02:49:15;99480.06;;;10.26;42.76
42725;BME280;28369;44.046;23.014;2023-03-15T02:51:42;99540.44;;;10.70;42.56
42725;BME280;28369;44.046;23.014;2023-03-15T02:54:07;99722.97;;;12.23;41.53
42725;BME280;28369;44.046;23.014;2023-03-15T02:56:33;99887.91;;;13.26;41.41
42725;BME280;28369;44.046;23.014;2023-03-15T02:58:59;99711.28;;;12.42;40.65
42725;BME280;28369;44.046;23.014;2023-03-15T03:01:25;99671.59;;;12.44;40.05
42725;BME280;28369;44.046;23.014;2023-03-15T03:03:50;99655.63;;;12.54;39.45
42725;BME280;28369;44.046;23.014;2023-03-15T03:06:16;99693.50;;;12.61;39.06
42725;BME280;28369;44.046;23.014;2023-03-15T03:08:43;100005.06;;;14.89;39.21
42725;BME280;28369;44.046;23.014;2023-03-15T03:11:13;99862.56;;;14.06;39.04
42725;BME280;28369;44.046;23.014;2023-03-15T03:13:40;99422.81;;;11.48;38.81
42725;BME280;28369;44.046;23.014;2023-03-15T03:16:06;99722.97;;;13.06;38.95
42725;BME280;28369;44.046;23.014;2023-03-15T03:18:32;99839.22;;;14.18;38.78
42725;BME280;28369;44.046;23.014;2023-03-15T03:21:02;99675.53;;;12.98;39.09
42725;BME280;28369;44.046;23.014;2023-03-15T03:23:29;100007.78;;;14.80;39.36
42725;BME280;28369;44.046;23.014;2023-03-15T03:25:56;99305.84;;;10.17;39.75
42725;BME280;28369;44.046;23.014;2023-03-15T03:28:24;100006.66;;;14.66;39.84
42725;BME280;28369;44.046;23.014;2023-03-15T03:30:51;99587.91;;;11.97;40.44
42725;BME280;28369;44.046;23.014;2023-03-15T03:33:17;99803.31;;;13.36;40.35
42725;BME280;28369;44.046;23.014;2023-03-15T03:35:43;99553.13;;;11.76;40.64
42725;BME280;28369;44.046;23.014;2023-03-15T03:38:09;99723.00;;;12.73;40.64
42725;BME280;28369;44.046;23.014;2023-03-15T03:40:37;99626.22;;;11.91;41.04
42725;BME280;28369;44.046;23.014;2023-03-15T03:43:03;99656.84;;;11.92;41.26
42725;BME280;28369;44.046;23.014;2023-03-15T03:45:28;99693.03;;;12.49;41.11
42725;BME280;28369;44.046;23.014;2023-03-15T03:47:54;99679.81;;;12.16;41.51
42725;BME280;28369;44.046;23.014;2023-03-15T03:50:19;99541.88;;;11.41;41.40
42725;BME280;28369;44.046;23.014;2023-03-15T03:52:45;99636.97;;;11.98;41.31
42725;BME280;28369;44.046;23.014;2023-03-15T03:55:11;100028.03;;;14.40;41.68
42725;BME280;28369;44.046;23.014;2023-03-15T03:57:39;99654.53;;;11.89;41.64
42725;BME280;28369;44.046;23.014;2023-03-15T04:00:06;99831.81;;;13.32;40.36
42725;BME280;28369;44.046;23.014;2023-03-15T04:02:33;99548.81;;;11.67;40.51
42725;BME280;28369;44.046;23.014;2023-03-15T04:04:58;99841.09;;;13.37;40.69
42725;BME280;28369;44.046;23.014;2023-03-15T04:07:24;99885.25;;;13.76;40.90
42725;BME280;28369;44.046;23.014;2023-03-15T04:09:49;99642.25;;;12.14;40.85
42725;BME280;28369;44.046;23.014;2023-03-15T04:12:15;99580.06;;;11.54;40.87
42725;BME280;28369;44.046;23.014;2023-03-15T04:14:41;99484.75;;;11.17;41.07
42725;BME280;28369;44.046;23.014;2023-03-15T04:17:06;99983.50;;;14.60;40.56
42725;BME280;28369;44.046;23.014;2023-03-15T04:19:33;99634.69;;;12.27;40.84
42725;BME280;28369;44.046;23.014;2023-03-15T04:21:59;99871.59;;;13.56;40.79
42725;BME280;28369;44.046;23.014;2023-03-15T04:24:32;99641.28;;;12.23;40.79
42725;BME280;28369;44.046;23.014;2023-03-15T04:26:58;99961.06;;;14.48;40.43
42725;BME280;28369;44.046;23.014;2023-03-15T04:29:24;99432.16;;;11.26;40.23
42725;BME280;28369;44.046;23.014;2023-03-15T04:31:49;99863.03;;;14.10;40.22
42725;BME280;28369;44.046;23.014;2023-03-15T04:34:15;99707.47;;;13.19;39.78
42725;BME280;28369;44.046;23.014;2023-03-15T04:36:41;99967.44;;;14.78;40.04
42725;BME280;28369;44.046;23.014;2023-03-15T04:39:07;99480.94;;;11.03;41.04
42725;BME280;28369;44.046;23.014;2023-03-15T04:41:34;99520.66;;;11.43;41.57
42725;BME280;28369;44.046;23.014;2023-03-15T04:44:02;99639.66;;;12.39;41.10
42725;BME280;28369;44.046;23.014;2023-03-15T04:46:29;99834.91;;;13.77;40.74
42725;BME280;28369;44.046;23.014;2023-03-15T04:48:55;99595.16;;;12.36;40.64
42725;BME280;28369;44.046;23.014;2023-03-15T04:51:20;99958.78;;;14.84;40.76
42725;BME280;28369;44.046;23.014;2023-03-15T04:53:46;99796.53;;;13.98;40.50
42725;BME280;28369;44.046;23.014;2023-03-15T04:56:12;99967.44;;;14.78;40.65
42725;BME280;28369;44.046;23.014;2023-03-15T04:58:37;99486.16;;;11.71;40.34
42725;BME280;28369;44.046;23.014;2023-03-15T05:01:03;99853.84;;;14.37;40.38
42725;BME280;28369;44.046;23.014;2023-03-15T05:03:28;99946.50;;;14.92;40.42
42725;BME280;28369;44.046;23.014;2023-03-15T05:05:54;99777.25;;;13.89;40.35
42725;BME280;28369;44.046;23.014;2023-03-15T05:08:19;99637.97;;;12.79;41.08
42725;BME280;28369;44.046;23.014;2023-03-15T05:10:45;99811.28;;;13.84;41.05
42725;BME280;28369;44.046;23.014;2023-03-15T05:13:11;99940.00;;;14.71;40.89
42725;BME280;28369;44.046;23.014;2023-03-15T05:15:36;99635.81;;;12.08;41.63
42725;BME280;28369;44.046;23.014;2023-03-15T05:18:02;99953.16;;;14.40;41.57
42725;BME280;28369;44.046;23.014;2023-03-15T05:20:28;99967.69;;;14.52;41.31
42725;BME280;28369;44.046;23.014;2023-03-15T05:22:54;99855.56;;;13.65;41.39
42725;BME280;28369;44.046;23.014;2023-03-15T05:25:19;99396.63;;;11.05;41.46
42725;BME280;28369;44.046;23.014;2023-03-15T05:27:45;99526.31;;;12.06;41.49
42725;BME280;28369;44.046;23.014;2023-03-15T05:30:11;99654.94;;;12.85;41.36
42725;BME280;28369;44.046;23.014;2023-03-15T05:32:37;99447.97;;;11.58;41.48
42725;BME280;28369;44.046;23.014;2023-03-15T05:35:05;99595.44;;;12.74;41.02
42725;BME280;28369;44.046;23.014;2023-03-15T05:37:32;99626.81;;;13.17;40.93
42725;BME280;28369;44.046;23.014;2023-03-15T05:39:58;99482.00;;;12.26;40.88
42725;BME280;28369;44.046;23.014;2023-03-15T05:42:24;99601.31;;;12.92;41.28
42725;BME280;28369;44.046;23.014;2023-03-15T05:44:51;99965.16;;;15.30;41.46
42725;BME280;28369;44.046;23.014;2023-03-15T05:47:17;99625.25;;;13.39;41.02
42725;BME280;28369;44.046;23.014;2023-03-15T05:49:43;99794.50;;;14.40;41.43
42725;BME280;28369;44.046;23.014;2023-03-15T05:52:09;99743.66;;;13.67;41.98
42725;BME280;28369;44.046;23.014;2023-03-15T05:54:35;99758.97;;;13.71;42.55
42725;BME280;28369;44.046;23.014;2023-03-15T05:57:00;99970.22;;;15.16;41.96
42725;BME280;28369;44.046;23.014;2023-03-15T05:59:26;99915.59;;;14.92;41.42
42725;BME280;28369;44.046;23.014;2023-03-15T06:01:51;100000.75;;;15.97;40.58
42725;BME280;28369;44.046;23.014;2023-03-15T06:04:17;99841.06;;;15.27;40.28
42725;BME280;28369;44.046;23.014;2023-03-15T06:06:42;99970.22;;;16.01;39.83
42725;BME280;28369;44.046;23.014;2023-03-15T06:09:08;99846.03;;;15.45;39.55
42725;BME280;28369;44.046;23.014;2023-03-15T06:11:33;99817.81;;;15.52;38.29
42725;BME280;28369;44.046;23.014;2023-03-15T06:13:59;99586.00;;;13.90;38.13
42725;BME280;28369;44.046;23.014;2023-03-15T06:16:25;99958.34;;;16.41;37.77
42725;BME280;28369;44.046;23.014;2023-03-15T06:18:50;99960.63;;;16.45;37.64
42725;BME280;28369;44.046;23.014;2023-03-15T06:21:16;99978.50;;;16.51;37.66
42725;BME280;28369;44.046;23.014;2023-03-15T06:23:41;99968.56;;;16.00;37.04
42725;BME280;28369;44.046;23.014;2023-03-15T06:26:07;99603.31;;;13.70;36.89
42725;BME280;28369;44.046;23.014;2023-03-15T06:28:33;99819.66;;;15.13;36.55
42725;BME280;28369;44.046;23.014;2023-03-15T06:31:05;99814.19;;;15.15;35.83
42725;BME280;28369;44.046;23.014;2023-03-15T06:33:30;99974.25;;;16.12;35.58
42725;BME280;28369;44.046;23.014;2023-03-15T06:35:56;99650.69;;;14.49;35.02
42725;BME280;28369;44.046;23.014;2023-03-15T06:38:21;99631.59;;;14.15;35.44
42725;BME280;28369;44.046;23.014;2023-03-15T06:40:47;99528.03;;;13.74;35.41
42725;BME280;28369;44.046;23.014;2023-03-15T06:43:13;99947.69;;;16.35;34.80
42725;BME280;28369;44.046;23.014;2023-03-15T06:45:44;99959.19;;;16.42;35.21
42725;BME280;28369;44.046;23.014;2023-03-15T06:48:11;99604.78;;;14.18;34.76
42725;BME280;28369;44.046;23.014;2023-03-15T06:50:36;99992.47;;;16.45;35.54
42725;BME280;28369;44.046;23.014;2023-03-15T06:53:02;99679.00;;;14.63;35.22
42725;BME280;28369;44.046;23.014;2023-03-15T06:55:27;99687.41;;;14.21;34.51
42725;BME280;28369;44.046;23.014;2023-03-15T06:57:53;99845.34;;;15.28;35.04
42725;BME280;28369;44.046;23.014;2023-03-15T07:00:19;99975.84;;;16.51;34.73
42725;BME280;28369;44.046;23.014;2023-03-15T07:02:44;99930.38;;;16.24;34.63
42725;BME280;28369;44.046;23.014;2023-03-15T07:05:10;99992.22;;;16.69;34.67
42725;BME280;28369;44.046;23.014;2023-03-15T07:07:36;99700.50;;;14.83;33.78
42725;BME280;28369;44.046;23.014;2023-03-15T07:10:01;99977.19;;;16.76;33.56
42725;BME280;28369;44.046;23.014;2023-03-15T07:12:27;99652.75;;;14.77;33.45
42725;BME280;28369;44.046;23.014;2023-03-15T07:14:53;99666.94;;;15.14;34.02
42725;BME280;28369;44.046;23.014;2023-03-15T07:17:18;99568.72;;;14.79;33.15
42725;BME280;28369;44.046;23.014;2023-03-15T07:19:44;99476.78;;;14.36;32.22
42725;BME280;28369;44.046;23.014;2023-03-15T07:22:09;99699.06;;;15.85;31.89
42725;BME280;28369;44.046;23.014;2023-03-15T07:24:35;99536.81;;;14.65;31.71
42725;BME280;28369;44.046;23.014;2023-03-15T07:27:00;99652.31;;;15.33;31.69
42725;BME280;28369;44.046;23.014;2023-03-15T07:29:26;99648.56;;;15.27;32.45
42725;BME280;28369;44.046;23.014;2023-03-15T07:31:51;99976.66;;;17.61;31.95
42725;BME280;28369;44.046;23.014;2023-03-15T07:34:17;99660.25;;;15.48;31.90
42725;BME280;28369;44.046;23.014;2023-03-15T07:36:43;99667.75;;;15.59;31.85
42725;BME280;28369;44.046;23.014;2023-03-15T07:39:08;99671.13;;;16.04;30.37
42725;BME280;28369;44.046;23.014;2023-03-15T07:41:35;99994.56;;;18.24;30.41
42725;BME280;28369;44.046;23.014;2023-03-15T07:44:02;99983.28;;;18.22;30.57
42725;BME280;28369;44.046;23.014;2023-03-15T07:46:28;99635.91;;;15.89;30.11
42725;BME280;28369;44.046;23.014;2023-03-15T07:48:54;99742.56;;;16.71;30.34
42725;BME280;28369;44.046;23.014;2023-03-15T07:51:20;99570.13;;;15.78;31.52
42725;BME280;28369;44.046;23.014;2023-03-15T07:53:46;99872.06;;;17.97;29.86
42725;BME280;28369;44.046;23.014;2023-03-15T07:56:12;99240.94;;;13.44;30.36
42725;BME280;28369;44.046;23.014;2023-03-15T07:58:37;99757.50;;;17.22;30.59
42725;BME280;28369;44.046;23.014;2023-03-15T08:01:03;99941.47;;;17.81;30.61
42725;BME280;28369;44.046;23.014;2023-03-15T08:03:29;99977.84;;;16.93;32.38
42725;BME280;28369;44.046;23.014;2023-03-15T08:05:55;99237.34;;;12.46;32.60
42725;BME280;28369;44.046;23.014;2023-03-15T08:08:21;99997.53;;;17.64;31.81
42725;BME280;28369;44.046;23.014;2023-03-15T08:10:47;99827.09;;;16.52;31.86
42725;BME280;28369;44.046;23.014;2023-03-15T08:13:13;99815.53;;;16.82;31.32
42725;BME280;28369;44.046;23.014;2023-03-15T08:15:38;99984.84;;;17.38;31.26
42725;BME280;28369;44.046;23.014;2023-03-15T08:18:05;99678.44;;;15.21;31.87
42725;BME280;28369;44.046;23.014;2023-03-15T08:20:30;99583.03;;;15.14;31.26
42725;BME280;28369;44.046;23.014;2023-03-15T08:22:58;99885.91;;;16.92;31.64
42725;BME280;28369;44.046;23.014;2023-03-15T08:25:24;100032.84;;;17.36;31.89
42725;BME280;28369;44.046;23.014;2023-03-15T08:27:50;99811.28;;;16.66;31.35
42725;BME280;28369;44.046;23.014;2023-03-15T08:30:17;99858.03;;;17.25;31.44
42725;BME280;28369;44.046;23.014;2023-03-15T08:32:44;100010.19;;;18.05;31.46
42725;BME280;28369;44.046;23.014;2023-03-15T08:35:12;99704.47;;;16.35;31.26
42725;BME280;28369;44.046;23.014;2023-03-15T08:37:38;99662.97;;;15.54;32.23
42725;BME280;28369;44.046;23.014;2023-03-15T08:40:05;99499.47;;;13.92;32.63
42725;BME280;28369;44.046;23.014;2023-03-15T08:42:35;99651.59;;;14.56;34.06
42725;BME280;28369;44.046;23.014;2023-03-15T08:45:02;99703.66;;;15.32;32.59
42725;BME280;28369;44.046;23.014;2023-03-15T08:47:28;99600.19;;;15.33;32.36
42725;BME280;28369;44.046;23.014;2023-03-15T08:49:54;100014.72;;;16.44;33.88
42725;BME280;28369;44.046;23.014;2023-03-15T08:52:19;99999.50;;;16.67;34.13
42725;BME280;28369;44.046;23.014;2023-03-15T08:54:46;99998.78;;;17.03;33.59
42725;BME280;28369;44.046;23.014;2023-03-15T08:57:11;99988.44;;;17.73;32.93
42725;BME280;28369;44.046;23.014;2023-03-15T08:59:38;99646.31;;;15.76;32.15
42725;BME280;28369;44.046;23.014;2023-03-15T09:02:03;99619.91;;;14.86;33.22
42725;BME280;28369;44.046;23.014;2023-03-15T09:04:29;99990.19;;;18.16;33.03
42725;BME280;28369;44.046;23.014;2023-03-15T09:06:55;99648.22;;;15.00;33.80
42725;BME280;28369;44.046;23.014;2023-03-15T09:09:20;99984.53;;;17.91;32.75
42725;BME280;28369;44.046;23.014;2023-03-15T09:11:46;99871.59;;;16.72;33.50
42725;BME280;28369;44.046;23.014;2023-03-15T09:14:12;99609.28;;;14.18;35.48
42725;BME280;28369;44.046;23.014;2023-03-15T09:16:37;99691.75;;;14.98;34.36
42725;BME280;28369;44.046;23.014;2023-03-15T09:19:03;99861.78;;;16.06;35.01
42725;BME280;28369;44.046;23.014;2023-03-15T09:21:28;99844.97;;;16.29;34.71
42725;BME280;28369;44.046;23.014;2023-03-15T09:23:54;99994.56;;;16.94;35.83
42725;BME280;28369;44.046;23.014;2023-03-15T09:26:19;99662.75;;;15.19;34.61
42725;BME280;28369;44.046;23.014;2023-03-15T09:28:45;99856.00;;;16.84;34.46
42725;BME280;28369;44.046;23.014;2023-03-15T09:31:10;99880.06;;;17.75;33.27
42725;BME280;28369;44.046;23.014;2023-03-15T09:33:36;99624.66;;;15.87;32.52
42725;BME280;28369;44.046;23.014;2023-03-15T09:36:02;100001.69;;;18.52;32.97
42725;BME280;28369;44.046;23.014;2023-03-15T09:38:28;99843.06;;;17.74;33.00
42725;BME280;28369;44.046;23.014;2023-03-15T09:40:58;99500.56;;;15.76;32.88
42725;BME280;28369;44.046;23.014;2023-03-15T09:46:29;99524.44;;;15.54;32.25
42725;BME280;28369;44.046;23.014;2023-03-15T09:52:33;99962.78;;;18.51;32.19
42725;BME280;28369;44.046;23.014;2023-03-15T09:55:26;99968.97;;;18.58;31.87
42725;BME280;28369;44.046;23.014;2023-03-15T09:57:55;99678.88;;;17.34;31.21
42725;BME280;28369;44.046;23.014;2023-03-15T10:00:42;99650.06;;;16.96;31.22
42725;BME280;28369;44.046;23.014;2023-03-15T10:03:32;99967.84;;;18.04;32.64
42725;BME280;28369;44.046;23.014;2023-03-15T10:06:19;99433.28;;;14.68;32.46
42725;BME280;28369;44.046;23.014;2023-03-15T10:08:48;99537.91;;;15.37;32.38
42725;BME280;28369;44.046;23.014;2023-03-15T10:16:49;99986.47;;;18.80;33.27
42725;BME280;28369;44.046;23.014;2023-03-15T10:19:35;99983.28;;;18.22;33.12
42725;BME280;28369;44.046;23.014;2023-03-15T10:27:14;99975.66;;;18.89;32.21
42725;BME280;28369;44.046;23.014;2023-03-15T10:29:43;99607.66;;;17.51;31.79
42725;BME280;28369;44.046;23.014;2023-03-15T10:32:16;99860.22;;;18.55;32.23
42725;BME280;28369;44.046;23.014;2023-03-15T10:34:47;99906.06;;;19.05;32.01
42725;BME280;28369;44.046;23.014;2023-03-15T10:37:14;99943.56;;;19.10;31.37
42725;BME280;28369;44.046;23.014;2023-03-15T10:39:40;99184.13;;;15.08;30.80
42725;BME280;28369;44.046;23.014;2023-03-15T10:42:24;99284.16;;;16.18;29.92
42725;BME280;28369;44.046;23.014;2023-03-15T10:44:51;99267.00;;;16.14;29.69
42725;BME280;28369;44.046;23.014;2023-03-15T10:47:20;99211.94;;;16.16;30.33
42725;BME280;28369;44.046;23.014;2023-03-15T10:49:48;99263.06;;;16.71;28.96
42725;BME280;28369;44.046;23.014;2023-03-15T10:54:56;99688.78;;;19.49;29.27
42725;BME280;28369;44.046;23.014;2023-03-15T10:57:30;99279.22;;;15.73;30.08
42725;BME280;28369;44.046;23.014;2023-03-15T11:00:00;99918.34;;;20.13;30.66
42725;BME280;28369;44.046;23.014;2023-03-15T11:02:49;99717.56;;;19.07;30.12
42725;BME280;28369;44.046;23.014;2023-03-15T11:05:16;99638.50;;;18.74;30.25
42725;BME280;28369;44.046;23.014;2023-03-15T11:07:56;99591.84;;;18.18;29.97
42725;BME280;28369;44.046;23.014;2023-03-15T11:10:27;99567.44;;;17.13;31.19
42725;BME280;28369;44.046;23.014;2023-03-15T11:13:22;99566.63;;;17.87;30.63
42725;BME280;28369;44.046;23.014;2023-03-15T11:18:45;99847.88;;;19.02;31.94
42725;BME280;28369;44.046;23.014;2023-03-15T11:21:16;99927.34;;;20.26;31.18
42725;BME280;28369;44.046;23.014;2023-03-15T11:23:47;99942.00;;;20.62;30.10
42725;BME280;28369;44.046;23.014;2023-03-15T11:26:24;99186.16;;;15.83;30.21
42725;BME280;28369;44.046;23.014;2023-03-15T11:29:05;99881.31;;;20.37;30.07
42725;BME280;28369;44.046;23.014;2023-03-15T11:31:34;99251.69;;;15.67;30.38
42725;BME280;28369;44.046;23.014;2023-03-15T11:37:13;99617.47;;;17.51;30.95
42725;BME280;28369;44.046;23.014;2023-03-15T11:42:22;99774.88;;;19.50;30.77
42725;BME280;28369;44.046;23.014;2023-03-15T11:44:54;99623.56;;;18.40;30.90
42725;BME280;28369;44.046;23.014;2023-03-15T11:47:55;99941.41;;;20.60;30.86
42725;BME280;28369;44.046;23.014;2023-03-15T11:50:23;99259.03;;;17.16;30.33
42725;BME280;28369;44.046;23.014;2023-03-15T11:52:53;99189.13;;;17.28;30.11
42725;BME280;28369;44.046;23.014;2023-03-15T11:55:26;99206.25;;;17.53;29.15
42725;BME280;28369;44.046;23.014;2023-03-15T11:58:28;99915.16;;;22.21;29.09
42725;BME280;28369;44.046;23.014;2023-03-15T12:01:13;99890.69;;;21.81;28.94
42725;BME280;28369;44.046;23.014;2023-03-15T12:07:29;99614.81;;;19.77;29.61
42725;BME280;28369;44.046;23.014;2023-03-15T12:10:19;99240.56;;;16.47;30.00
42725;BME280;28369;44.046;23.014;2023-03-15T12:13:26;99160.19;;;16.80;29.98
42725;BME280;28369;44.046;23.014;2023-03-15T12:15:57;99710.91;;;19.43;30.02
42725;BME280;28369;44.046;23.014;2023-03-15T12:18:42;99152.22;;;16.80;29.43
42725;BME280;28369;44.046;23.014;2023-03-15T12:36:47;99182.22;;;16.67;29.71
42725;BME280;28369;44.046;23.014;2023-03-15T13:32:37;99881.03;;;21.98;28.66
42725;BME280;28369;44.046;23.014;2023-03-15T13:35:11;99151.56;;;17.25;29.16
42725;BME280;28369;44.046;23.014;2023-03-15T17:01:53;99968.81;;;20.22;33.86
42725;BME280;28369;44.046;23.014;2023-03-15T17:04:20;99570.66;;;17.63;33.94
42725;BME280;28369;44.046;23.014;2023-03-15T17:06:47;99845.41;;;19.34;33.61
42725;BME280;28369;44.046;23.014;2023-03-15T17:09:16;99713.84;;;18.41;33.44
42725;BME280;28369;44.046;23.014;2023-03-15T17:11:48;99722.22;;;18.52;33.16
42725;BME280;28369;44.046;23.014;2023-03-15T17:14:23;99725.13;;;18.43;33.52
42725;BME280;28369;44.046;23.014;2023-03-15T17:16:51;99867.56;;;19.21;33.49
42725;BME280;28369;44.046;23.014;2023-03-15T17:19:17;99883.94;;;19.25;33.49
42725;BME280;28369;44.046;23.014;2023-03-15T17:21:43;100009.09;;;20.07;33.37
42725;BME280;28369;44.046;23.014;2023-03-15T17:24:13;99929.47;;;19.43;33.26
42725;BME280;28369;44.046;23.014;2023-03-15T17:26:40;99507.59;;;16.68;33.23
42725;BME280;28369;44.046;23.014;2023-03-15T17:29:11;99385.72;;;16.18;33.41
42725;BME280;28369;44.046;23.014;2023-03-15T17:34:59;99775.06;;;18.48;33.62
42725;BME280;28369;44.046;23.014;2023-03-15T17:40:48;100030.03;;;19.90;33.54
42725;BME280;28369;44.046;23.014;2023-03-15T17:43:14;100037.19;;;19.82;33.85
42725;BME280;28369;44.046;23.014;2023-03-15T17:45:41;100029.34;;;19.74;34.24
42725;BME280;28369;44.046;23.014;2023-03-15T17:48:07;100025.66;;;19.68;34.42
42725;BME280;28369;44.046;23.014;2023-03-15T17:50:34;100026.91;;;19.59;34.45
42725;BME280;28369;44.046;23.014;2023-03-15T17:53:03;100030.34;;;19.53;34.60
42725;BME280;28369;44.046;23.014;2023-03-15T17:58:51;99936.63;;;18.19;35.90
42725;BME280;28369;44.046;23.014;2023-03-15T18:01:25;100035.63;;;18.78;35.92
42725;BME280;28369;44.046;23.014;2023-03-15T18:03:52;99700.13;;;16.49;35.77
42725;BME280;28369;44.046;23.014;2023-03-15T18:06:19;99926.75;;;18.13;35.68
42725;BME280;28369;44.046;23.014;2023-03-15T18:08:46;99907.47;;;18.04;35.43
42725;BME280;28369;44.046;23.014;2023-03-15T18:11:32;100038.84;;;18.73;35.78
42725;BME280;28369;44.046;23.014;2023-03-15T18:14:01;99682.47;;;16.63;35.49
42725;BME280;28369;44.046;23.014;2023-03-15T18:16:26;99964.44;;;18.17;35.54
42725;BME280;28369;44.046;23.014;2023-03-15T18:18:52;100044.56;;;18.63;35.62
42725;BME280;28369;44.046;23.014;2023-03-15T18:21:21;99791.00;;;16.80;36.21
42725;BME280;28369;44.046;23.014;2023-03-15T18:23:47;100058.09;;;18.40;36.42